Capitol Logistics 446


KIAD
Washington Dulles International Airport
Dulles, Virginia, US
KRFD
Chicago/Rockford International Airport
Rockford, Illinois, US

Route Details

Aircraft Information
Primary: Boeing 737-800BCF
Backup: Not Available
Route Data
Distance: 626nm
Sched. Duration: 1h 39m
Avg. Duration: 1h 56m (+16m)
Times Flown: 15
Recm'd Route: BUNZZ3 RAMAY Q72 HACKS J149 FWA V340 OXI JOT
Planned Altitude: 36,000ft
Origin Wx: KIAD 160752Z 33004KT 10SM FEW033 03/02 A2962 RMK AO2 SLP030 T00330022
Dest. Wx: KRFD 160816Z 28008KT 4SM -SN BR OVC007 01/M01 A2959 RMK AO2 CIG 005V010 P0001 T00111011
Notes:

Financial History
Total Freight: 1,265,967lbs
Average Load: 84,398lbs/flt
Fuel Used: 242,299lbs
Avg. Fuel Used: 16,153lbs/flt
Fuel Expense: $311,165
Avg. Fuel Expense: $20,744
Avg. Fuel Cost: $1.26/lbs
Total Gross Income: $1,670,881
Pilot Pay: $2,315
Total Expenses: $177,857
Total Revenue: $1,176,011
Average Revenue: $111,392.05